createdAt,value
2023-04-16T00:02:25.504Z,59.02
2023-04-16T00:05:27.842Z,59.31
2023-04-16T00:08:30.123Z,59.13
2023-04-16T00:11:32.269Z,58.97
2023-04-16T00:14:34.447Z,58.80
2023-04-16T00:17:40.548Z,59.18
2023-04-16T00:20:42.725Z,59.57
2023-04-16T00:23:44.814Z,59.48
2023-04-16T00:26:47.026Z,59.57
2023-04-16T00:29:49.163Z,59.44
2023-04-16T00:32:51.348Z,59.80
2023-04-16T00:35:53.592Z,59.68
2023-04-16T00:38:56.726Z,59.14
2023-04-16T00:41:58.850Z,59.49
2023-04-16T00:45:01.036Z,60.14
2023-04-16T00:48:03.557Z,60.12
2023-04-16T00:51:06.883Z,60.24
2023-04-16T00:54:09.075Z,59.95
2023-04-16T00:57:13.602Z,59.71
2023-04-16T01:00:16.176Z,59.49
2023-04-16T01:03:18.384Z,59.53
2023-04-16T01:06:21.513Z,59.73
2023-04-16T01:09:24.052Z,59.42
2023-04-16T01:12:26.420Z,59.30
2023-04-16T01:15:28.794Z,59.15
2023-04-16T01:18:30.910Z,59.73
2023-04-16T01:21:33.091Z,59.53
2023-04-16T01:24:35.548Z,59.95
2023-04-16T01:27:37.765Z,60.14
2023-04-16T01:30:39.898Z,59.88
2023-04-16T01:33:57.116Z,60.38
2023-04-16T01:36:59.372Z,59.84
2023-04-16T01:40:02.802Z,59.43
2023-04-16T01:43:05.083Z,60.08
2023-04-16T01:46:27.394Z,59.46
2023-04-16T01:49:29.584Z,59.54
2023-04-16T01:52:31.876Z,60.04
2023-04-16T01:55:34.365Z,59.94
2023-04-16T01:58:36.466Z,59.97
2023-04-16T02:01:38.994Z,60.44
2023-04-16T02:04:42.611Z,60.13
2023-04-16T02:07:44.734Z,60.31
2023-04-16T02:10:47.800Z,59.53
2023-04-16T02:13:49.995Z,59.74
2023-04-16T02:16:53.651Z,59.39
2023-04-16T02:20:12.395Z,59.33
2023-04-16T02:23:28.613Z,59.76
2023-04-16T02:26:33.243Z,59.43
2023-04-16T02:29:40.968Z,59.74
2023-04-16T02:32:49.756Z,60.20
2023-04-16T02:35:52.669Z,60.40
2023-04-16T02:38:55.237Z,59.84
2023-04-16T02:41:57.980Z,59.49
2023-04-16T02:45:00.217Z,59.08
2023-04-16T02:48:02.573Z,59.27
2023-04-16T02:51:05.358Z,58.95
2023-04-16T02:54:07.702Z,59.66
2023-04-16T02:57:09.905Z,59.53
2023-04-16T03:00:12.814Z,59.49
2023-04-16T03:03:15.005Z,59.35
2023-04-16T03:06:17.164Z,58.73
2023-04-16T03:09:19.343Z,58.92
2023-04-16T03:12:21.724Z,59.26
2023-04-16T03:15:24.836Z,59.68
2023-04-16T03:18:27.040Z,59.90
2023-04-16T03:21:29.202Z,60.07
2023-04-16T03:24:32.230Z,60.15
2023-04-16T03:27:35.276Z,60.59
2023-04-16T03:30:38.499Z,60.31
2023-04-16T03:33:42.494Z,60.39
2023-04-16T03:36:45.092Z,60.04
2023-04-16T03:39:47.559Z,60.06
2023-04-16T03:42:50.445Z,59.38
2023-04-16T03:45:52.772Z,59.33
2023-04-16T03:48:58.362Z,59.49
2023-04-16T03:52:00.561Z,59.44
2023-04-16T03:55:04.066Z,59.70
2023-04-16T03:58:07.108Z,59.18
2023-04-16T04:01:09.306Z,59.43
2023-04-16T04:04:12.882Z,58.46
2023-04-16T04:07:17.511Z,58.48
2023-04-16T04:10:19.847Z,58.59
2023-04-16T04:13:22.312Z,58.29
2023-04-16T04:16:26.017Z,58.00
2023-04-16T04:19:28.203Z,58.21
2023-04-16T04:22:31.774Z,57.64
2023-04-16T04:25:34.228Z,57.27
2023-04-16T04:28:36.402Z,56.87
2023-04-16T04:31:39.845Z,56.62
2023-04-16T04:34:43.262Z,56.64
2023-04-16T04:37:45.474Z,56.25
2023-04-16T04:40:52.968Z,56.52
2023-04-16T04:43:56.721Z,57.06
2023-04-16T04:47:00.834Z,57.33
2023-04-16T04:50:03.281Z,57.97
2023-04-16T04:53:10.195Z,57.91
2023-04-16T04:56:13.424Z,57.58
2023-04-16T04:59:16.337Z,57.47
2023-04-16T05:02:19.466Z,57.96
2023-04-16T05:05:21.787Z,58.16
2023-04-16T05:08:23.965Z,58.55
2023-04-16T05:11:26.084Z,58.17
2023-04-16T05:14:28.256Z,58.04
2023-04-16T05:17:30.397Z,58.05
2023-04-16T05:20:32.558Z,57.70
2023-04-16T05:23:34.709Z,57.93
2023-04-16T05:26:36.850Z,57.97
2023-04-16T05:29:39.002Z,58.10
2023-04-16T05:32:41.412Z,57.71
2023-04-16T05:35:43.634Z,57.92
2023-04-16T05:38:45.807Z,57.71
2023-04-16T05:41:47.941Z,57.63
2023-04-16T05:44:51.172Z,57.70
2023-04-16T05:47:53.391Z,57.73
2023-04-16T05:50:55.645Z,57.73
2023-04-16T05:53:57.827Z,57.29
2023-04-16T05:57:01.123Z,57.25
2023-04-16T06:00:03.756Z,57.75
2023-04-16T06:03:14.256Z,57.44
2023-04-16T06:06:16.576Z,57.33
2023-04-16T06:09:19.168Z,57.26
2023-04-16T06:12:21.266Z,57.14
2023-04-16T06:15:23.415Z,57.38
2023-04-16T06:18:25.659Z,57.17
2023-04-16T06:21:28.718Z,57.36
2023-04-16T06:24:31.091Z,57.39
2023-04-16T06:27:33.216Z,56.83
2023-04-16T06:30:35.566Z,57.19
2023-04-16T06:33:37.693Z,57.23
2023-04-16T06:36:39.815Z,56.72
2023-04-16T06:39:42.003Z,56.89
2023-04-16T06:42:45.550Z,56.66
2023-04-16T06:45:48.037Z,57.12
2023-04-16T06:48:50.542Z,56.15
2023-04-16T06:51:52.827Z,56.09
2023-04-16T06:54:54.989Z,55.95
2023-04-16T06:57:57.105Z,55.62
2023-04-16T07:00:59.432Z,55.84
2023-04-16T07:04:02.006Z,55.88
2023-04-16T07:07:04.659Z,55.93
2023-04-16T07:10:07.231Z,55.52
2023-04-16T07:13:09.395Z,55.22
2023-04-16T07:16:11.668Z,55.26
2023-04-16T07:19:13.925Z,55.42
2023-04-16T07:22:16.550Z,54.97
2023-04-16T07:25:18.728Z,55.14
2023-04-16T07:28:21.825Z,54.87
2023-04-16T07:31:24.035Z,54.66
2023-04-16T07:34:29.217Z,54.24
2023-04-16T07:37:31.393Z,54.00
2023-04-16T07:40:33.509Z,53.76
2023-04-16T07:43:35.816Z,54.08
2023-04-16T07:46:46.466Z,53.75
2023-04-16T07:49:50.658Z,53.73
2023-04-16T07:52:52.853Z,53.84
2023-04-16T07:55:55.795Z,54.20
2023-04-16T07:59:02.857Z,53.95
2023-04-16T08:02:13.620Z,53.65
2023-04-16T08:05:16.077Z,53.30
2023-04-16T08:08:18.195Z,53.71
2023-04-16T08:11:20.552Z,53.17
2023-04-16T08:14:22.807Z,52.76
2023-04-16T08:17:24.999Z,52.53
2023-04-16T08:20:29.347Z,52.15
2023-04-16T08:23:31.506Z,52.21
2023-04-16T08:26:33.598Z,52.03
2023-04-16T08:29:35.710Z,52.09
2023-04-16T08:32:38.142Z,51.63
2023-04-16T08:35:41.314Z,51.70
2023-04-16T08:38:43.451Z,51.53
2023-04-16T08:41:47.083Z,52.01
2023-04-16T08:44:49.976Z,51.60
2023-04-16T08:47:53.074Z,51.52
2023-04-16T08:50:55.644Z,51.54
2023-04-16T08:54:12.438Z,51.57
2023-04-16T08:57:19.755Z,51.55
2023-04-16T09:00:21.986Z,51.49
2023-04-16T09:03:24.386Z,51.54
2023-04-16T09:06:27.636Z,51.61
2023-04-16T09:09:30.132Z,51.33
2023-04-16T09:12:32.331Z,51.20
2023-04-16T09:15:35.553Z,51.49
2023-04-16T09:18:37.755Z,51.30
2023-04-16T09:21:41.718Z,51.53
2023-04-16T09:24:47.696Z,51.23
2023-04-16T09:27:50.888Z,51.52
2023-04-16T09:31:08.073Z,51.27
2023-04-16T09:34:10.339Z,51.11
2023-04-16T09:37:19.151Z,51.38
2023-04-16T09:40:26.155Z,51.39
2023-04-16T09:43:28.363Z,51.67
2023-04-16T09:46:31.813Z,51.55
2023-04-16T09:49:35.741Z,51.51
2023-04-16T09:52:40.905Z,51.38
2023-04-16T09:55:43.415Z,51.45
2023-04-16T09:58:46.512Z,50.78
2023-04-16T10:02:13.933Z,50.77
2023-04-16T10:05:20.119Z,50.37
2023-04-16T10:08:24.016Z,50.30
2023-04-16T10:11:26.382Z,50.02
2023-04-16T10:14:28.497Z,49.92
2023-04-16T10:17:31.599Z,49.67
2023-04-16T10:20:33.875Z,49.28
2023-04-16T10:23:36.298Z,48.83
2023-04-16T10:26:39.198Z,47.07
2023-04-16T10:29:41.433Z,46.53
2023-04-16T10:32:44.670Z,46.30
2023-04-16T10:35:52.324Z,46.03
2023-04-16T10:39:00.912Z,44.78
2023-04-16T10:42:08.510Z,44.06
2023-04-16T10:45:11.270Z,43.76
2023-04-16T10:48:14.875Z,42.36
2023-04-16T10:51:34.033Z,43.07
2023-04-16T10:54:36.590Z,42.95
2023-04-16T10:57:38.772Z,44.17
2023-04-16T11:00:51.180Z,43.35
2023-04-16T11:03:53.662Z,43.92
2023-04-16T11:07:08.222Z,43.51
2023-04-16T11:10:13.161Z,43.26
2023-04-16T11:13:16.190Z,43.12
2023-04-16T11:16:18.477Z,43.06
2023-04-16T11:19:20.891Z,42.91
2023-04-16T11:22:23.148Z,43.04
2023-04-16T11:25:30.126Z,42.88
2023-04-16T11:28:37.981Z,42.41
2023-04-16T11:31:40.376Z,42.73
2023-04-16T11:34:47.374Z,42.52
2023-04-16T11:37:49.589Z,42.55
2023-04-16T11:40:53.939Z,42.30
2023-04-16T11:43:56.445Z,42.10
2023-04-16T11:46:58.661Z,41.70
2023-04-16T11:50:27.273Z,42.07
2023-04-16T11:53:29.471Z,41.58
2023-04-16T11:56:34.218Z,41.54
2023-04-16T11:59:37.078Z,41.71
2023-04-16T12:02:59.426Z,41.69
2023-04-16T12:06:07.778Z,41.75
2023-04-16T12:09:26.172Z,41.50
2023-04-16T12:12:31.388Z,41.59
2023-04-16T12:15:51.450Z,41.80
2023-04-16T12:19:03.572Z,41.38
2023-04-16T12:22:05.657Z,41.57
2023-04-16T12:25:11.987Z,41.70
2023-04-16T12:28:14.438Z,41.62
2023-04-16T12:31:16.593Z,41.98
2023-04-16T12:34:20.106Z,42.28
2023-04-16T12:37:22.244Z,42.09
2023-04-16T12:40:24.485Z,42.00
2023-04-16T12:43:26.739Z,42.08
2023-04-16T12:46:29.011Z,41.52
2023-04-16T12:49:31.212Z,41.10
2023-04-16T12:52:34.363Z,40.52
2023-04-16T12:55:36.615Z,40.88
2023-04-16T12:58:38.820Z,40.31
2023-04-16T13:01:41.010Z,40.01
2023-04-16T13:04:43.294Z,40.61
2023-04-16T13:07:45.570Z,40.17
2023-04-16T13:10:47.817Z,39.69
2023-04-16T13:13:49.937Z,40.16
2023-04-16T13:16:52.118Z,40.06
2023-04-16T13:19:54.357Z,39.78
2023-04-16T13:22:56.705Z,39.20
2023-04-16T13:25:58.842Z,39.35
2023-04-16T13:29:01.057Z,39.80
2023-04-16T13:32:04.010Z,39.43
2023-04-16T13:35:06.474Z,38.94
2023-04-16T13:38:08.657Z,38.97
2023-04-16T13:41:10.826Z,38.40
2023-04-16T13:44:12.981Z,38.29
2023-04-16T13:47:15.240Z,38.75
2023-04-16T13:50:17.488Z,38.81
2023-04-16T13:53:19.670Z,38.71
2023-04-16T13:56:21.899Z,38.63
2023-04-16T13:59:24.043Z,39.33
2023-04-16T14:02:26.722Z,39.04
2023-04-16T14:05:29.008Z,38.86
2023-04-16T14:08:31.657Z,39.00
2023-04-16T14:11:33.855Z,38.97
2023-04-16T14:14:36.253Z,38.73
2023-04-16T14:17:38.557Z,38.71
2023-04-16T14:20:40.742Z,38.84
2023-04-16T14:23:42.849Z,38.51
2023-04-16T14:26:44.961Z,39.09
2023-04-16T14:29:47.134Z,38.75
2023-04-16T14:32:49.280Z,38.44
2023-04-16T14:35:52.096Z,38.29
2023-04-16T14:38:54.294Z,38.47
2023-04-16T14:41:56.514Z,38.46
2023-04-16T14:44:58.659Z,38.29
2023-04-16T14:48:00.912Z,38.11
2023-04-16T14:51:03.061Z,38.53
2023-04-16T14:54:05.395Z,37.94
2023-04-16T14:57:07.636Z,38.25
2023-04-16T15:00:11.022Z,37.54
2023-04-16T15:03:13.410Z,36.78
2023-04-16T15:06:16.608Z,36.54
2023-04-16T15:09:18.982Z,36.70
2023-04-16T15:12:21.131Z,36.80
2023-04-16T15:15:23.226Z,36.81
2023-04-16T15:18:25.424Z,36.94
2023-04-16T15:21:28.065Z,37.34
2023-04-16T15:24:30.296Z,37.56
2023-04-16T15:27:32.493Z,37.84
2023-04-16T15:30:41.345Z,37.40
2023-04-16T15:33:43.543Z,37.04
2023-04-16T15:36:45.701Z,36.68
2023-04-16T15:39:47.834Z,36.29
2023-04-16T15:42:50.015Z,36.18
2023-04-16T15:45:52.133Z,36.63
2023-04-16T15:48:54.260Z,36.57
2023-04-16T15:51:56.515Z,36.87
2023-04-16T15:54:58.652Z,37.43
2023-04-16T15:58:00.769Z,37.48
2023-04-16T16:01:02.869Z,37.25
2023-04-16T16:04:06.850Z,37.72
2023-04-16T16:07:09.248Z,38.48
2023-04-16T16:10:12.930Z,37.88
2023-04-16T16:13:18.140Z,38.46
2023-04-16T16:16:21.715Z,38.49
2023-04-16T16:19:23.973Z,38.71
2023-04-16T16:22:26.231Z,39.08
2023-04-16T16:25:29.041Z,39.46
2023-04-16T16:28:31.208Z,39.46
2023-04-16T16:31:33.542Z,39.61
2023-04-16T16:34:35.754Z,39.18
2023-04-16T16:37:38.492Z,39.80
2023-04-16T16:40:40.728Z,39.62
2023-04-16T16:43:42.937Z,39.87
2023-04-16T16:46:45.141Z,40.06
2023-04-16T16:49:48.300Z,39.80
2023-04-16T16:52:50.540Z,40.30
2023-04-16T16:55:52.775Z,40.42
2023-04-16T16:58:55.016Z,40.52
2023-04-16T17:01:57.199Z,40.71
2023-04-16T17:04:59.416Z,40.87
2023-04-16T17:08:01.615Z,40.66
2023-04-16T17:11:04.271Z,40.85
2023-04-16T17:14:06.462Z,41.13
2023-04-16T17:17:08.772Z,41.28
2023-04-16T17:20:12.476Z,41.76
2023-04-16T17:23:14.704Z,41.74
2023-04-16T17:26:16.940Z,41.69
2023-04-16T17:29:20.789Z,42.04
2023-04-16T17:32:22.985Z,42.01
2023-04-16T17:35:25.410Z,41.78
2023-04-16T17:38:27.566Z,42.00
2023-04-16T17:41:29.787Z,42.62
2023-04-16T17:44:31.894Z,41.83
2023-04-16T17:47:37.422Z,42.09
2023-04-16T17:50:39.865Z,41.89
2023-04-16T17:53:43.411Z,42.12
2023-04-16T17:56:46.250Z,42.24
2023-04-16T17:59:48.398Z,41.97
2023-04-16T18:02:52.374Z,42.19
2023-04-16T18:05:54.657Z,42.04
2023-04-16T18:08:56.812Z,42.68
2023-04-16T18:11:58.906Z,42.46
2023-04-16T18:15:01.018Z,42.91
2023-04-16T18:18:03.292Z,43.07
2023-04-16T18:21:05.698Z,43.24
2023-04-16T18:24:08.276Z,43.38
2023-04-16T18:27:10.596Z,43.58
2023-04-16T18:30:19.892Z,44.04
2023-04-16T18:33:38.976Z,44.31
2023-04-16T18:36:47.607Z,44.76
2023-04-16T18:39:49.762Z,44.66
2023-04-16T18:42:51.880Z,45.23
2023-04-16T18:45:54.039Z,45.67
2023-04-16T18:48:56.440Z,45.89
2023-04-16T18:51:58.660Z,46.14
2023-04-16T18:55:00.856Z,46.12
2023-04-16T18:58:03.013Z,46.45
2023-04-16T19:01:07.776Z,46.49
2023-04-16T19:04:10.055Z,46.79
2023-04-16T19:07:12.197Z,47.22
2023-04-16T19:10:14.444Z,46.95
2023-04-16T19:13:16.713Z,47.17
2023-04-16T19:16:18.881Z,47.65
2023-04-16T19:19:21.102Z,47.81
2023-04-16T19:22:23.336Z,47.88
2023-04-16T19:25:25.455Z,47.93
2023-04-16T19:28:28.321Z,47.96
2023-04-16T19:31:30.529Z,48.13
2023-04-16T19:34:33.937Z,48.33
2023-04-16T19:37:36.150Z,48.21
2023-04-16T19:40:38.478Z,48.27
2023-04-16T19:43:40.732Z,48.39
2023-04-16T19:46:42.911Z,48.48
2023-04-16T19:49:47.405Z,48.43
2023-04-16T19:52:49.543Z,48.63
2023-04-16T19:55:51.635Z,48.61
2023-04-16T19:58:53.756Z,48.61
2023-04-16T20:01:55.951Z,48.57
2023-04-16T20:05:00.189Z,48.77
2023-04-16T20:08:03.787Z,48.67
2023-04-16T20:11:08.392Z,48.58
2023-04-16T20:14:10.656Z,48.77
2023-04-16T20:17:18.650Z,48.63
2023-04-16T20:20:23.522Z,48.87
2023-04-16T20:23:25.746Z,48.80
2023-04-16T20:26:33.384Z,48.80
2023-04-16T20:29:35.743Z,48.95
2023-04-16T20:32:37.932Z,49.00
2023-04-16T20:35:40.110Z,48.95
2023-04-16T20:38:43.640Z,48.90
2023-04-16T20:41:56.588Z,48.86
2023-04-16T20:45:00.652Z,48.57
2023-04-16T20:48:02.979Z,48.70
2023-04-16T20:51:06.272Z,48.63
2023-04-16T20:54:10.114Z,48.57
2023-04-16T20:57:12.267Z,48.64
2023-04-16T21:00:15.497Z,48.52
2023-04-16T21:03:18.424Z,48.69
2023-04-16T21:06:22.494Z,48.57
2023-04-16T21:09:24.694Z,48.46
2023-04-16T21:12:27.293Z,48.62
2023-04-16T21:15:30.921Z,48.44
2023-04-16T21:18:33.131Z,48.47
2023-04-16T21:21:35.386Z,48.95
2023-04-16T21:24:37.540Z,48.40
2023-04-16T21:27:39.838Z,48.54
2023-04-16T21:30:42.045Z,48.47
2023-04-16T21:33:44.198Z,48.39
2023-04-16T21:36:46.591Z,48.66
2023-04-16T21:39:48.709Z,48.91
2023-04-16T21:42:50.812Z,48.68
2023-04-16T21:45:56.132Z,49.03
2023-04-16T21:48:58.332Z,49.13
2023-04-16T21:52:02.350Z,48.81
2023-04-16T21:55:05.063Z,48.78
2023-04-16T21:58:07.247Z,48.79
2023-04-16T22:01:10.988Z,48.95
2023-04-16T22:04:14.034Z,49.03
2023-04-16T22:07:16.865Z,48.75
2023-04-16T22:10:19.198Z,48.85
2023-04-16T22:13:21.689Z,48.96
2023-04-16T22:16:24.833Z,48.75
2023-04-16T22:19:27.305Z,48.90
2023-04-16T22:22:29.466Z,49.14
2023-04-16T22:25:31.672Z,49.01
2023-04-16T22:28:33.795Z,49.51
2023-04-16T22:31:36.112Z,49.22
2023-04-16T22:34:38.436Z,49.20
2023-04-16T22:37:40.852Z,49.28
2023-04-16T22:40:43.001Z,49.00
2023-04-16T22:43:45.206Z,49.22
2023-04-16T22:46:47.546Z,49.15
2023-04-16T22:49:50.167Z,49.12
2023-04-16T22:52:52.328Z,49.15
2023-04-16T22:55:54.560Z,49.48
2023-04-16T22:58:57.220Z,49.33
2023-04-16T23:01:59.463Z,49.11
2023-04-16T23:05:01.716Z,48.63
2023-04-16T23:08:03.931Z,49.08
2023-04-16T23:11:06.410Z,49.09
2023-04-16T23:14:09.648Z,49.07
2023-04-16T23:17:13.685Z,48.71
2023-04-16T23:20:15.968Z,48.91
2023-04-16T23:23:18.282Z,48.89
2023-04-16T23:26:20.561Z,48.88
2023-04-16T23:29:22.687Z,48.87
2023-04-16T23:32:24.870Z,48.56
2023-04-16T23:35:27.045Z,48.50
2023-04-16T23:38:29.230Z,48.39
2023-04-16T23:41:31.325Z,48.33
2023-04-16T23:44:33.537Z,48.52
2023-04-16T23:47:38.789Z,48.29
2023-04-16T23:50:41.000Z,48.16
2023-04-16T23:53:43.118Z,48.08
2023-04-16T23:56:45.501Z,47.88
2023-04-16T23:59:47.631Z,47.97
